Time;durP1;ratioP1;P1;durP2;ratioP2;P2;SDS_P1;SDS_P2;PMS_P1;PMS_P2;Temp;Humidity;BMP_temperature;BMP_pressure;BME280_temperature;BME280_humidity;BME280_pressure;Samples;Min_cycle;Max_cycle;Signal;HPM_P1;HPM_P2
2022/06/22 00:00:21;;;;;;;3.15;1.30;;;;;;;17.99;76.00;99364.11;1791735;77;21226;-89
2022/06/22 00:02:52;;;;;;;2.85;1.77;;;;;;;18.01;76.27;99353.34;1817306;79;20928;-89
2022/06/22 00:05:47;;;;;;;1.85;1.47;;;;;;;18.02;76.23;99347.84;1817230;79;20966;-90
2022/06/22 00:08:19;;;;;;;2.33;1.12;;;;;;;18.04;76.11;99335.73;1817037;78;20910;-89
2022/06/22 00:11:07;;;;;;;2.02;1.02;;;;;;;18.04;76.18;99327.78;1816941;77;20903;-89
2022/06/22 00:13:34;;;;;;;1.10;1.00;;;;;;;18.04;76.09;99334.41;1781233;79;21747;-89
2022/06/22 00:16:08;;;;;;;4.33;1.45;;;;;;;18.03;76.42;99340.73;1816986;79;20922;-88
2022/06/22 00:18:40;;;;;;;4.12;1.47;;;;;;;18.06;76.35;99358.13;1816451;79;20887;-90
2022/06/22 00:21:28;;;;;;;1.50;1.40;;;;;;;18.07;76.44;99369.88;1817201;77;21337;-89
2022/06/22 00:23:58;;;;;;;1.45;1.20;;;;;;;18.08;76.50;99372.05;1815397;79;20883;-90
2022/06/22 00:26:33;;;;;;;5.60;1.55;;;;;;;18.05;76.63;99333.91;1817632;77;21139;-90
2022/06/22 00:29:17;;;;;;;1.15;1.05;;;;;;;18.05;76.66;99328.60;1817777;79;26981;-89
2022/06/22 00:31:52;;;;;;;2.08;1.60;;;;;;;18.03;76.58;99336.75;1817475;79;21490;-89
2022/06/22 00:34:23;;;;;;;1.67;1.40;;;;;;;18.03;76.69;99340.73;1819792;79;20914;-87
2022/06/22 00:37:18;;;;;;;1.57;1.40;;;;;;;18.02;76.85;99345.69;1820348;77;20965;-85
2022/06/22 00:39:48;;;;;;;1.25;1.15;;;;;;;18.02;77.00;99337.73;1756129;80;21127;-89
2022/06/22 00:42:39;;;;;;;3.80;1.55;;;;;;;18.02;77.22;99319.98;1755476;81;20939;-89
2022/06/22 00:45:10;;;;;;;2.87;1.25;;;;;;;18.01;77.15;99316.20;1755289;80;20880;-88
2022/06/22 00:47:48;;;;;;;4.00;1.85;;;;;;;18.01;77.17;99293.14;1755001;80;20943;-88
2022/06/22 00:50:26;;;;;;;1.92;1.50;;;;;;;18.02;77.23;99299.27;1754410;80;20844;-88
2022/06/22 00:53:04;;;;;;;1.52;1.42;;;;;;;18.02;77.36;99327.12;1755375;80;21205;-87
2022/06/22 00:55:35;;;;;;;2.65;1.60;;;;;;;18.02;77.38;99362.43;1742011;81;20927;-90
2022/06/22 00:58:13;;;;;;;3.22;1.87;;;;;;;18.01;77.29;99384.66;1755564;80;20930;-90
2022/06/22 01:00:43;;;;;;;3.47;1.67;;;;;;;17.99;77.30;99396.45;1755303;81;20912;-90
2022/06/22 01:03:26;;;;;;;5.90;2.20;;;;;;;17.98;77.24;99400.08;1754712;80;21007;-90
2022/06/22 01:06:01;;;;;;;3.08;1.52;;;;;;;17.98;77.22;99406.72;1755201;80;21226;-90
2022/06/22 01:08:42;;;;;;;4.72;1.87;;;;;;;17.96;77.21;99400.28;1719404;81;20999;-90
2022/06/22 01:14:30;;;;;;;4.85;2.02;;;;;;;17.97;77.41;99385.18;1796321;78;21025;-89
2022/06/22 01:16:58;;;;;;;3.20;1.92;;;;;;;17.98;77.62;99379.69;1816932;79;20969;-88
2022/06/22 01:19:40;;;;;;;3.55;2.72;;;;;;;17.98;77.64;99347.03;1816898;78;21232;-89
2022/06/22 01:22:28;;;;;;;5.92;3.10;;;;;;;17.98;77.82;99341.22;1804005;77;20903;-89
2022/06/22 01:25:22;;;;;;;2.90;2.70;;;;;;;17.95;77.65;99334.94;1816805;79;21412;-89
2022/06/22 01:27:48;;;;;;;4.30;3.47;;;;;;;17.92;78.00;99296.83;1816843;77;20899;-89
2022/06/22 01:30:35;;;;;;;3.35;3.12;;;;;;;17.92;78.03;99280.07;1817044;77;20859;-89
2022/06/22 01:33:14;;;;;;;4.25;3.62;;;;;;;17.91;78.01;99279.25;1817067;79;21129;-88
2022/06/22 01:35:41;;;;;;;3.75;3.10;;;;;;;17.91;78.43;99251.41;1816264;79;20875;-89
2022/06/22 01:38:24;;;;;;;2.72;2.52;;;;;;;17.89;78.40;99237.48;1817258;77;21357;-89
2022/06/22 01:41:11;;;;;;;4.53;3.87;;;;;;;17.90;78.54;99242.31;1816789;77;20950;-89
2022/06/22 01:43:46;;;;;;;4.75;3.12;;;;;;;17.90;78.59;99239.16;1816799;78;20926;-89
2022/06/22 01:46:45;;;;;;;3.77;2.80;;;;;;;17.91;78.55;99232.83;1816589;78;21125;-89
2022/06/22 01:49:25;;;;;;;8.25;3.10;;;;;;;17.91;78.38;99238.14;1817140;77;21382;-88
2022/06/22 01:51:55;;;;;;;4.33;3.15;;;;;;;17.89;78.31;99264.52;1817084;77;20926;-89
2022/06/22 01:54:29;;;;;;;6.90;5.00;;;;;;;17.88;78.36;99280.11;1816842;78;20868;-89
2022/06/22 01:59:23;;;;;;;6.20;4.65;;;;;;;17.92;78.47;99281.40;1797921;79;22601;-90
2022/06/22 02:02:25;;;;;;;6.62;4.58;;;;;;;17.87;78.50;99270.48;1758651;80;20955;-88
2022/06/22 02:05:06;;;;;;;8.83;5.28;;;;;;;17.86;78.80;99264.36;1758477;81;21199;-90
2022/06/22 02:07:46;;;;;;;10.78;6.20;;;;;;;17.86;78.85;99272.83;1729106;80;20975;-90
2022/06/22 02:10:48;;;;;;;9.30;6.00;;;;;;;17.86;78.93;99304.66;1758368;80;20928;-89
2022/06/22 02:13:28;;;;;;;12.28;6.45;;;;;;;17.85;78.90;99305.63;1758664;80;20908;-89
2022/06/22 02:16:24;;;;;;;14.18;8.40;;;;;;;17.85;79.14;99312.27;1759048;81;20869;-89
2022/06/22 02:19:02;;;;;;;14.45;8.85;;;;;;;17.83;79.17;99327.05;1758598;81;21341;-89
2022/06/22 02:21:37;;;;;;;16.05;9.88;;;;;;;17.82;79.01;99330.67;1758382;80;20951;-89
2022/06/22 02:24:26;;;;;;;18.73;11.12;;;;;;;17.79;78.98;99333.14;1758605;80;20928;-89
2022/06/22 02:26:58;;;;;;;21.42;11.85;;;;;;;17.78;79.25;99338.10;1760589;80;21456;-88
2022/06/22 02:29:35;;;;;;;15.78;10.00;;;;;;;17.76;79.35;99340.13;1759545;80;20876;-88
2022/06/22 02:32:06;;;;;;;17.95;9.60;;;;;;;17.75;79.35;99331.83;1745918;80;21248;-89
2022/06/22 02:34:33;;;;;;;17.82;10.00;;;;;;;17.73;79.37;99329.84;1758758;81;20858;-90
2022/06/22 02:37:03;;;;;;;13.00;8.73;;;;;;;17.70;79.36;99325.39;1758423;81;20956;-89
2022/06/22 02:39:30;;;;;;;19.45;8.70;;;;;;;17.67;79.48;99324.39;1758600;80;21003;-91
2022/06/22 02:44:42;;;;;;;10.88;7.25;;;;;;;17.60;79.85;99321.08;1758810;80;21015;-89
2022/06/22 02:47:31;;;;;;;10.35;6.53;;;;;;;17.57;79.78;99306.03;1759278;80;20881;-90
2022/06/22 02:50:26;;;;;;;8.15;5.90;;;;;;;17.54;79.92;99297.07;1758991;80;20884;-89
2022/06/22 02:52:59;;;;;;;5.37;4.60;;;;;;;17.49;80.08;99309.51;1758918;80;21143;-88
2022/06/22 02:55:28;;;;;;;6.78;3.87;;;;;;;17.44;79.83;99315.00;1759461;81;20872;-90
2022/06/22 02:57:59;;;;;;;8.53;4.30;;;;;;;17.39;79.56;99303.59;1759213;80;21141;-89
2022/06/22 03:00:29;;;;;;;9.18;5.58;;;;;;;17.35;79.15;99308.38;1759378;81;20956;-90
2022/06/22 03:03:01;;;;;;;4.50;4.00;;;;;;;17.33;78.92;99310.88;1759607;81;20917;-90
2022/06/22 03:05:28;;;;;;;5.97;4.00;;;;;;;17.29;78.57;99310.38;1757276;80;20864;-90
2022/06/22 03:07:58;;;;;;;10.50;3.85;;;;;;;17.24;78.58;99302.61;1759284;81;20884;-91
2022/06/22 03:10:44;;;;;;;6.12;4.05;;;;;;;17.18;78.61;99309.39;1758517;81;21968;-90
2022/06/22 03:13:17;;;;;;;3.33;3.02;;;;;;;17.13;78.74;99313.05;1757998;81;20940;-90
2022/06/22 03:15:43;;;;;;;3.50;2.80;;;;;;;17.09;78.66;99315.70;1758508;81;20896;-90
2022/06/22 03:18:15;;;;;;;3.27;3.02;;;;;;;17.07;78.64;99318.50;1759052;80;20916;-90
2022/06/22 03:20:50;;;;;;;6.45;3.10;;;;;;;17.05;78.71;99317.02;1758674;81;20979;-90
2022/06/22 03:23:23;;;;;;;4.53;3.40;;;;;;;17.04;78.88;99316.20;1758613;80;21148;-90
2022/06/22 03:25:58;;;;;;;3.22;3.02;;;;;;;17.04;78.91;99322.81;1757605;80;21006;-89
2022/06/22 03:28:38;;;;;;;6.67;3.52;;;;;;;17.06;78.80;99322.66;1758855;81;20911;-91
2022/06/22 03:31:11;;;;;;;3.27;2.98;;;;;;;17.07;78.63;99326.45;1759015;81;21389;-91
2022/06/22 03:33:53;;;;;;;3.22;2.92;;;;;;;17.08;78.42;99323.33;1758737;81;21370;-91
2022/06/22 03:36:27;;;;;;;7.67;3.10;;;;;;;17.10;78.17;99331.43;1756416;81;21216;-91
2022/06/22 03:39:01;;;;;;;4.47;3.25;;;;;;;17.12;77.96;99343.16;1753195;81;21022;-92
2022/06/22 03:41:31;;;;;;;4.35;3.37;;;;;;;17.12;77.89;99342.69;1758997;81;20943;-92
2022/06/22 03:44:12;;;;;;;3.62;3.30;;;;;;;17.14;77.62;99341.17;1758759;80;20943;-91
2022/06/22 03:46:53;;;;;;;7.05;3.35;;;;;;;17.16;77.26;99345.34;1758705;81;20959;-90
2022/06/22 03:49:39;;;;;;;3.58;2.77;;;;;;;17.19;76.71;99346.33;1759700;80;21856;-90
2022/06/22 03:52:20;;;;;;;3.80;2.58;;;;;;;17.22;76.64;99349.14;1759152;81;20904;-91
2022/06/22 03:54:56;;;;;;;3.60;2.35;;;;;;;17.26;76.30;99354.44;1759346;81;20912;-91
2022/06/22 03:57:30;;;;;;;4.22;2.98;;;;;;;17.28;76.04;99360.40;1746576;80;21382;-90
2022/06/22 03:59:57;;;;;;;2.77;2.52;;;;;;;17.32;75.56;99360.87;1759198;81;20884;-91
2022/06/22 04:02:27;;;;;;;3.25;2.72;;;;;;;17.34;74.73;99357.56;1758585;81;21122;-91
2022/06/22 04:04:54;;;;;;;3.58;1.95;;;;;;;17.39;74.38;99360.56;1758689;81;20948;-91
2022/06/22 04:07:22;;;;;;;3.02;2.30;;;;;;;17.46;73.93;99362.05;1758648;80;20952;-89
2022/06/22 04:09:52;;;;;;;3.62;2.95;;;;;;;17.49;73.55;99361.70;1758817;80;20932;-90
2022/06/22 04:12:30;;;;;;;9.88;2.75;;;;;;;17.62;73.39;99362.02;1758493;81;20876;-89
2022/06/22 04:15:25;;;;;;;3.30;1.80;;;;;;;17.94;72.81;99365.13;1758558;81;21268;-91
2022/06/22 04:17:59;;;;;;;2.62;1.72;;;;;;;18.48;71.91;99352.45;1758705;81;20916;-92
2022/06/22 04:20:52;;;;;;;5.33;2.25;;;;;;;19.14;69.97;99352.87;1759001;80;21398;-91
2022/06/22 04:23:50;;;;;;;3.58;1.50;;;;;;;19.79;67.68;99348.80;1759202;81;20939;-91
2022/06/22 04:26:26;;;;;;;4.67;1.47;;;;;;;20.52;63.78;99352.05;1758856;81;20932;-91
2022/06/22 04:29:02;;;;;;;7.28;2.15;;;;;;;21.21;61.23;99360.86;1759077;81;21271;-92
2022/06/22 04:31:33;;;;;;;3.58;2.15;;;;;;;21.77;59.85;99366.26;1758608;81;20908;-90
2022/06/22 04:34:07;;;;;;;4.08;1.02;;;;;;;22.31;57.61;99372.73;1758777;81;21062;-93
2022/06/22 04:36:40;;;;;;;2.00;1.00;;;;;;;22.74;54.01;99362.61;1758873;81;20940;-92
2022/06/22 04:39:21;;;;;;;5.33;1.30;;;;;;;23.15;53.42;99358.16;1758991;80;20881;-90
2022/06/22 04:41:47;;;;;;;2.95;1.10;;;;;;;23.56;52.77;99361.94;1758684;81;21816;-91
2022/06/22 04:44:26;;;;;;;8.78;1.25;;;;;;;23.98;50.94;99355.00;1758593;81;20872;-93
2022/06/22 04:47:07;;;;;;;4.87;1.30;;;;;;;24.33;50.26;99356.02;1758735;80;20908;-91
2022/06/22 04:49:40;;;;;;;1.55;1.45;;;;;;;24.64;49.22;99348.58;1758890;80;20896;-92
2022/06/22 04:52:18;;;;;;;2.55;1.50;;;;;;;24.98;47.88;99348.65;1759274;81;21021;-92
2022/06/22 04:54:45;;;;;;;2.87;1.07;;;;;;;25.28;47.05;99346.72;1758340;81;21141;-91
2022/06/22 04:57:25;;;;;;;2.22;1.00;;;;;;;25.60;46.15;99334.55;1758665;81;20976;-92
2022/06/22 04:59:52;;;;;;;3.70;0.82;;;;;;;25.84;44.31;99336.88;1758332;81;20912;-92
2022/06/22 05:02:21;;;;;;;2.80;0.80;;;;;;;26.10;43.16;99336.30;1758727;81;20885;-92
2022/06/22 05:04:51;;;;;;;1.60;1.02;;;;;;;26.36;42.19;99329.78;1758713;81;20924;-91
2022/06/22 05:07:57;;;;;;;2.15;0.90;;;;;;;26.60;42.17;99333.41;1758938;81;21227;-91
2022/06/22 05:10:51;;;;;;;1.15;0.93;;;;;;;26.81;40.91;99324.84;1759083;81;21070;-93
2022/06/22 05:13:33;;;;;;;6.80;1.60;;;;;;;27.05;40.38;99323.52;1757849;81;26991;-92
2022/06/22 05:15:59;;;;;;;2.70;0.60;;;;;;;27.40;39.68;99324.12;1759054;81;20947;-91
2022/06/22 05:18:34;;;;;;;3.47;1.25;;;;;;;27.67;39.90;99325.26;1758565;80;20884;-91
2022/06/22 05:21:30;;;;;;;1.65;0.78;;;;;;;27.91;38.75;99318.53;1759167;80;21128;-91
2022/06/22 05:23:58;;;;;;;5.17;0.70;;;;;;;28.11;37.23;99320.28;1758581;81;20920;-90
2022/06/22 05:26:24;;;;;;;6.12;0.98;;;;;;;28.32;36.99;99323.37;1742015;81;20893;-92
2022/06/22 05:29:11;;;;;;;4.47;0.50;;;;;;;28.49;36.33;99320.23;1758496;81;20935;-91
2022/06/22 05:31:46;;;;;;;2.22;0.80;;;;;;;28.73;36.08;99319.59;1758893;81;20921;-92
2022/06/22 05:34:23;;;;;;;3.15;0.50;;;;;;;28.92;35.40;99316.12;1759005;78;21224;-91
2022/06/22 05:37:12;;;;;;;1.75;0.60;;;;;;;29.00;34.45;99314.91;1758958;81;20920;-93
2022/06/22 05:39:39;;;;;;;1.80;0.40;;;;;;;29.20;34.60;99315.80;1758627;80;21363;-92
2022/06/22 05:42:05;;;;;;;2.05;1.35;;;;;;;29.43;33.79;99316.67;1759293;78;20830;-91
2022/06/22 05:44:33;;;;;;;1.15;0.50;;;;;;;29.49;33.95;99309.74;1758667;80;20974;-92
2022/06/22 05:47:03;;;;;;;2.45;0.55;;;;;;;29.58;33.18;99303.38;1759078;81;21175;-92
2022/06/22 05:49:35;;;;;;;3.02;1.00;;;;;;;29.65;32.94;99297.26;1742298;78;21018;-93
2022/06/22 05:52:37;;;;;;;0.80;0.60;;;;;;;29.73;33.23;99296.86;1759066;81;21492;-91
2022/06/22 05:55:29;;;;;;;0.68;0.50;;;;;;;29.83;33.33;99293.47;1759481;81;20897;-91
2022/06/22 05:58:16;;;;;;;0.90;0.60;;;;;;;29.96;32.26;99289.03;1711144;83;21389;-93
2022/06/22 06:00:47;;;;;;;4.05;0.80;;;;;;;29.95;31.89;99277.14;1694404;83;21113;-91
2022/06/22 06:03:31;;;;;;;4.12;0.68;;;;;;;29.96;31.83;99275.52;1694063;83;21033;-92
2022/06/22 06:06:09;;;;;;;2.70;1.20;;;;;;;30.08;32.07;99274.55;1693720;83;21406;-91
2022/06/22 06:09:01;;;;;;;4.58;2.55;;;;;;;30.41;32.65;99266.82;1685432;82;20928;-92
2022/06/22 06:11:33;;;;;;;9.90;2.90;;;;;;;30.68;32.17;99267.34;1693457;83;21019;-92
2022/06/22 06:14:04;;;;;;;7.10;3.10;;;;;;;30.95;31.88;99257.86;1693499;84;21246;-92
2022/06/22 06:16:50;;;;;;;6.05;2.42;;;;;;;31.07;32.12;99256.31;1693313;83;21006;-92
2022/06/22 06:19:20;;;;;;;10.75;6.22;;;;;;;31.22;32.08;99253.70;1693264;84;21342;-92
2022/06/22 06:21:47;;;;;;;13.22;7.17;;;;;;;31.16;31.25;99258.25;1693307;83;20951;-93
2022/06/22 06:24:30;;;;;;;13.20;7.35;;;;;;;31.20;31.27;99263.98;1693839;83;21093;-92
2022/06/22 06:30:15;;;;;;;16.80;5.85;;;;;;;31.01;31.38;99264.92;1693652;83;21020;-92
2022/06/22 06:32:55;;;;;;;11.53;5.67;;;;;;;30.58;31.72;99261.31;1693842;84;20884;-92
2022/06/22 06:35:48;;;;;;;6.12;4.20;;;;;;;30.28;32.52;99266.72;1733202;81;20968;-91
2022/06/22 06:38:41;;;;;;;7.42;3.70;;;;;;;30.12;32.46;99249.45;1756657;78;20916;-92
2022/06/22 06:41:33;;;;;;;5.72;3.92;;;;;;;30.32;32.67;99250.77;1755946;81;21593;-92
2022/06/22 06:44:16;;;;;;;9.40;3.15;;;;;;;30.48;32.37;99244.45;1755962;78;21760;-93
2022/06/22 06:46:51;;;;;;;5.17;3.22;;;;;;;30.48;31.71;99247.16;1755733;80;21387;-92
2022/06/22 06:49:32;;;;;;;9.88;3.30;;;;;;;29.99;32.48;99251.20;1757457;81;20901;-94
2022/06/22 06:52:35;;;;;;;6.72;3.10;;;;;;;29.47;32.95;99243.53;1756140;78;21019;-96
2022/06/22 06:55:25;;;;;;;5.83;3.30;;;;;;;29.20;33.51;99247.48;1757260;81;21210;-93
2022/06/22 06:57:58;;;;;;;5.97;2.92;;;;;;;29.28;34.10;99241.13;1686641;84;20975;-92
2022/06/22 07:00:26;;;;;;;3.27;2.92;;;;;;;29.47;34.06;99240.28;1645302;85;21013;-95
2022/06/22 07:02:53;;;;;;;7.28;2.98;;;;;;;29.50;33.69;99231.70;1645116;82;20945;-93
2022/06/22 07:05:21;;;;;;;2.83;2.50;;;;;;;29.53;33.37;99229.03;1645801;85;21076;-92
2022/06/22 07:08:04;;;;;;;7.00;3.22;;;;;;;29.63;32.93;99229.14;1612664;85;21131;-94
2022/06/22 07:10:47;;;;;;;6.05;3.83;;;;;;;29.57;31.35;99229.33;1595229;86;21012;-94
2022/06/22 07:13:24;;;;;;;3.22;0.95;;;;;;;29.73;29.23;99216.33;1586037;89;20981;-93
2022/06/22 07:15:56;;;;;;;1.17;1.00;;;;;;;29.96;28.65;99222.80;1590330;89;21032;-94
2022/06/22 07:18:36;;;;;;;1.77;0.90;;;;;;;30.29;28.75;99218.30;1590812;89;21059;-93
2022/06/22 07:21:27;;;;;;;3.60;0.72;;;;;;;30.65;28.52;99206.42;1611815;87;22733;-94
2022/06/22 07:24:14;;;;;;;2.25;0.82;;;;;;;31.06;28.05;99195.92;1590572;86;20937;-92
2022/06/22 07:27:02;;;;;;;1.75;0.78;;;;;;;31.50;26.94;99208.34;1590746;89;21566;-93
2022/06/22 07:29:40;;;;;;;1.65;0.70;;;;;;;31.83;26.90;99207.66;1591036;89;20972;-93
2022/06/22 07:32:53;;;;;;;1.35;1.00;;;;;;;32.04;26.83;99206.66;1591515;87;20969;-92
2022/06/22 07:35:34;;;;;;;1.52;0.50;;;;;;;32.34;26.01;99206.42;1619014;86;21482;-91
2022/06/22 07:38:21;;;;;;;4.55;0.70;;;;;;;32.71;25.64;99204.02;1608846;85;20968;-95
2022/06/22 07:43:33;;;;;;;4.03;0.50;;;;;;;33.11;24.66;99211.86;1687128;85;20948;-92
2022/06/22 07:46:00;;;;;;;2.45;0.50;;;;;;;33.16;24.42;99207.77;1721537;80;21002;-93
2022/06/22 07:48:27;;;;;;;3.80;0.70;;;;;;;32.91;24.63;99209.97;1693590;80;21256;-94
2022/06/22 07:50:56;;;;;;;2.80;0.70;;;;;;;32.73;24.12;99209.44;1721846;81;20900;-94
2022/06/22 07:53:44;;;;;;;1.72;0.78;;;;;;;32.41;24.85;99212.39;1721925;82;20951;-93
2022/06/22 07:56:28;;;;;;;1.02;0.82;;;;;;;32.05;25.24;99210.19;1722425;82;20923;-93
2022/06/22 07:59:11;;;;;;;2.52;0.70;;;;;;;32.09;25.59;99206.66;1722236;80;20975;-93
2022/06/22 08:01:41;;;;;;;3.20;2.05;;;;;;;32.21;25.29;99214.54;1720266;80;21148;-95
2022/06/22 08:04:27;;;;;;;94.15;85.72;;;;;;;32.14;25.08;99208.02;1688122;81;20918;-92
2022/06/22 08:07:08;;;;;;;2.58;2.15;;;;;;;32.05;25.00;99221.03;1687874;84;20880;-92
2022/06/22 08:10:21;;;;;;;1.52;0.85;;;;;;;31.68;24.85;99220.61;1724062;83;21555;-90
2022/06/22 08:13:16;;;;;;;2.33;0.60;;;;;;;31.45;25.09;99218.63;1707919;83;21034;-93
2022/06/22 08:15:57;;;;;;;2.27;0.47;;;;;;;31.52;25.39;99225.16;1682212;83;20978;-94
2022/06/22 08:18:26;;;;;;;2.27;0.60;;;;;;;31.59;25.86;99227.08;1703690;83;21020;-93
2022/06/22 08:20:55;;;;;;;4.30;0.30;;;;;;;31.55;25.39;99238.17;1726340;82;20876;-94
2022/06/22 08:23:25;;;;;;;0.70;0.30;;;;;;;31.65;25.48;99237.42;1726937;83;20888;-92
2022/06/22 08:25:52;;;;;;;0.80;0.40;;;;;;;31.40;25.81;99233.48;1703843;82;20943;-91
2022/06/22 08:28:21;;;;;;;5.28;0.42;;;;;;;31.13;25.79;99230.90;1726238;82;21119;-92
2022/06/22 08:30:51;;;;;;;0.50;0.40;;;;;;;30.73;25.66;99238.44;1726082;83;21055;-92
2022/06/22 08:33:32;;;;;;;2.65;0.40;;;;;;;30.39;25.75;99243.80;1726263;83;20951;-91
2022/06/22 08:36:25;;;;;;;3.00;0.47;;;;;;;30.04;26.06;99241.01;1726273;82;21018;-92
2022/06/22 08:39:03;;;;;;;1.00;0.30;;;;;;;29.69;26.50;99241.68;1726081;82;20907;-93
2022/06/22 08:41:51;;;;;;;0.70;0.30;;;;;;;29.27;27.39;99244.88;1725905;83;21289;-96
2022/06/22 08:44:27;;;;;;;1.07;0.47;;;;;;;28.82;27.57;99236.36;1726369;83;20998;-92
2022/06/22 08:47:05;;;;;;;1.55;0.30;;;;;;;28.31;28.45;99232.77;1725402;82;20915;-93
2022/06/22 08:50:26;;;;;;;2.58;0.60;;;;;;;27.99;28.80;99231.92;1727664;82;20880;-93
2022/06/22 08:53:22;;;;;;;2.98;1.80;;;;;;;27.67;29.79;99234.20;1727774;82;20942;-93
2022/06/22 08:56:09;;;;;;;6.42;0.65;;;;;;;27.16;31.12;99237.12;1727395;82;21100;-93
2022/06/22 08:59:10;;;;;;;0.62;0.40;;;;;;;26.78;31.10;99233.01;1727448;82;20967;-92
2022/06/22 09:02:29;;;;;;;6.35;1.82;;;;;;;26.52;31.81;99228.83;1727340;82;20904;-92
2022/06/22 09:05:11;;;;;;;1.30;1.02;;;;;;;26.42;31.93;99227.53;1715660;82;20881;-92
2022/06/22 09:08:25;;;;;;;1.62;1.22;;;;;;;26.34;32.45;99236.44;1712845;82;20980;-93
2022/06/22 09:11:23;;;;;;;1.13;0.80;;;;;;;26.29;31.68;99237.13;1714281;81;21219;-92
2022/06/22 09:14:24;;;;;;;0.78;0.60;;;;;;;26.30;32.18;99229.88;1714078;81;20868;-93
2022/06/22 09:17:18;;;;;;;1.47;0.47;;;;;;;26.42;32.16;99226.19;1713998;82;21062;-90
2022/06/22 09:20:12;;;;;;;0.65;0.60;;;;;;;26.44;31.36;99228.66;1711761;82;21066;-92
2022/06/22 09:23:10;;;;;;;2.30;0.53;;;;;;;26.40;31.65;99229.63;1703574;82;20822;-88
2022/06/22 09:25:49;;;;;;;1.80;0.70;;;;;;;26.30;31.89;99225.84;1712399;84;21151;-92
2022/06/22 09:28:39;;;;;;;0.93;0.90;;;;;;;26.10;32.00;99231.50;1713082;84;20979;-91
2022/06/22 09:31:46;;;;;;;4.05;0.82;;;;;;;25.96;32.46;99242.42;1713228;84;21019;-92
2022/06/22 09:34:36;;;;;;;2.02;0.93;;;;;;;25.74;32.57;99239.36;1711989;84;20856;-92
2022/06/22 09:37:55;;;;;;;1.62;1.05;;;;;;;25.43;32.71;99247.89;1713192;82;20936;-90
2022/06/22 09:40:56;;;;;;;1.37;0.68;;;;;;;25.17;33.10;99241.41;1713255;84;21311;-92
2022/06/22 09:44:09;;;;;;;1.87;0.85;;;;;;;24.94;34.17;99242.02;1653182;87;21027;-92
2022/06/22 09:46:50;;;;;;;0.60;0.60;;;;;;;24.75;34.78;99237.95;1689959;85;21042;-92
2022/06/22 09:49:56;;;;;;;6.28;1.20;;;;;;;24.55;34.75;99250.16;1689317;85;20876;-92
2022/06/22 09:52:51;;;;;;;2.58;1.17;;;;;;;24.38;34.88;99243.12;1689257;85;20963;-93
2022/06/22 09:58:56;;;;;;;2.83;1.10;;;;;;;24.05;35.95;99247.32;1689160;85;21441;-92
2022/06/22 10:02:06;;;;;;;4.70;1.10;;;;;;;23.85;36.97;99254.11;1689443;85;20865;-93
2022/06/22 10:04:57;;;;;;;6.60;1.10;;;;;;;23.68;37.14;99256.91;1685077;84;20892;-94
2022/06/22 10:07:48;;;;;;;2.60;1.20;;;;;;;23.52;37.74;99257.70;1689319;85;20935;-94
2022/06/22 10:10:24;;;;;;;3.30;1.00;;;;;;;23.35;37.43;99264.53;1689262;85;21417;-92
2022/06/22 10:13:24;;;;;;;4.12;0.90;;;;;;;23.14;38.14;99263.73;1689326;85;20979;-93
2022/06/22 10:16:13;;;;;;;2.67;0.72;;;;;;;22.98;39.01;99262.25;1689326;84;21389;-93
2022/06/22 10:18:52;;;;;;;1.60;0.88;;;;;;;22.79;38.93;99267.11;1691263;82;20935;-91
2022/06/22 10:21:32;;;;;;;5.47;2.58;;;;;;;22.65;39.49;99272.92;1751077;79;20977;-93
2022/06/22 10:24:22;;;;;;;2.30;1.40;;;;;;;22.66;39.61;99270.58;1750177;82;21213;-91
2022/06/22 10:27:21;;;;;;;0.53;0.47;;;;;;;22.66;39.78;99277.78;1751109;82;20942;-92
2022/06/22 10:30:40;;;;;;;2.60;1.20;;;;;;;22.63;39.61;99282.99;1751816;79;20899;-93
2022/06/22 10:33:31;;;;;;;3.37;0.88;;;;;;;22.61;40.03;99289.09;1665974;84;20961;-93
2022/06/22 10:36:20;;;;;;;3.20;1.30;;;;;;;22.51;40.92;99298.81;1677697;84;20993;-93
2022/06/22 10:39:30;;;;;;;0.98;0.60;;;;;;;22.32;42.17;99302.25;1678072;80;21388;-92
2022/06/22 10:46:03;;;;;;;5.70;1.30;;;;;;;22.08;42.60;99310.27;1589112;89;20905;-92
2022/06/22 10:48:50;;;;;;;2.58;1.10;;;;;;;21.85;42.93;99318.55;1576677;91;21432;-94
2022/06/22 10:52:09;;;;;;;4.05;1.40;;;;;;;21.65;44.65;99325.93;1575715;91;20953;-92
2022/06/22 10:55:07;;;;;;;7.55;2.30;;;;;;;21.41;45.44;99325.90;1575829;91;21208;-92
2022/06/22 10:57:55;;;;;;;6.55;2.72;;;;;;;21.15;45.94;99333.14;1576372;89;21044;-92
2022/06/22 11:00:42;;;;;;;3.17;2.10;;;;;;;20.97;46.97;99336.78;1576209;91;20941;-92
2022/06/22 11:03:42;;;;;;;4.45;2.33;;;;;;;20.78;47.65;99336.89;1576200;91;20989;-94
2022/06/22 11:06:49;;;;;;;4.20;2.60;;;;;;;20.58;48.59;99332.18;1576710;91;21001;-93
2022/06/22 11:09:31;;;;;;;4.85;2.52;;;;;;;20.43;49.41;99338.87;1577081;91;21246;-95
2022/06/22 11:12:37;;;;;;;7.53;2.22;;;;;;;20.25;50.05;99347.75;1576415;91;20909;-94
2022/06/22 11:15:29;;;;;;;4.72;2.33;;;;;;;20.14;50.91;99341.05;1576269;91;20988;-93
2022/06/22 11:18:31;;;;;;;2.85;1.75;;;;;;;20.10;51.80;99329.16;1576886;91;20944;-93
2022/06/22 11:21:12;;;;;;;4.70;2.58;;;;;;;20.17;52.33;99327.91;1604083;89;20902;-93
2022/06/22 11:24:17;;;;;;;2.27;1.90;;;;;;;20.35;52.29;99312.86;1621217;85;22236;-94
2022/06/22 11:33:07;;;;;;;2.27;1.40;;;;;;;21.33;50.30;99308.67;1649852;85;20915;-91
2022/06/22 11:35:56;;;;;;;1.85;1.45;;;;;;;21.69;50.22;99300.51;1604692;88;21071;-94
2022/06/22 11:39:02;;;;;;;1.55;0.55;;;;;;;22.04;49.78;99294.33;1605747;84;21167;-93
2022/06/22 11:41:35;;;;;;;1.42;0.80;;;;;;;22.30;47.34;99285.63;1639149;86;20907;-94
2022/06/22 11:44:36;;;;;;;1.87;0.62;;;;;;;22.54;46.29;99282.88;1622549;87;20970;-94
2022/06/22 11:47:12;;;;;;;2.12;0.80;;;;;;;22.65;46.39;99275.59;1606014;88;20989;-94
2022/06/22 11:50:11;;;;;;;0.72;0.33;;;;;;;22.64;45.37;99267.28;1639945;86;20951;-93
2022/06/22 11:52:58;;;;;;;0.55;0.30;;;;;;;22.67;45.31;99263.38;1638902;86;21258;-94
2022/06/22 11:55:34;;;;;;;0.65;0.42;;;;;;;22.80;44.97;99265.25;1605055;88;20949;-91
2022/06/22 11:58:19;;;;;;;0.82;0.70;;;;;;;23.00;44.25;99260.75;1639678;87;20950;-92
2022/06/22 12:01:20;;;;;;;1.00;0.68;;;;;;;23.16;43.79;99253.63;1639346;86;20947;-92
2022/06/22 12:04:22;;;;;;;1.77;1.12;;;;;;;23.30;42.36;99250.44;1631502;87;20963;-91
2022/06/22 12:07:14;;;;;;;1.95;0.23;;;;;;;23.26;42.36;99244.38;1639442;87;21192;-93
2022/06/22 12:10:20;;;;;;;3.05;0.82;;;;;;;23.20;42.47;99249.22;1639394;87;20994;-91
2022/06/22 12:13:06;;;;;;;1.55;0.60;;;;;;;23.13;43.07;99242.54;1606585;89;20913;-93
2022/06/22 12:16:18;;;;;;;1.30;0.50;;;;;;;23.05;44.27;99244.09;1639355;86;20961;-94
2022/06/22 12:19:05;;;;;;;2.30;0.62;;;;;;;22.94;44.02;99245.00;1631648;87;20954;-93
2022/06/22 12:21:43;;;;;;;0.80;0.65;;;;;;;22.81;44.26;99240.99;1639346;87;21127;-93
2022/06/22 12:24:44;;;;;;;1.30;0.40;;;;;;;22.64;44.31;99231.73;1638890;87;20934;-93
2022/06/22 12:27:22;;;;;;;2.50;0.82;;;;;;;22.46;44.89;99235.00;1606095;88;21002;-92
2022/06/22 12:30:03;;;;;;;5.50;1.30;;;;;;;22.23;44.96;99252.22;1639044;86;20958;-92
2022/06/22 12:32:51;;;;;;;2.80;1.32;;;;;;;21.96;46.59;99295.82;1617437;86;20991;-91
2022/06/22 12:35:36;;;;;;;3.92;0.70;;;;;;;21.57;48.40;99296.76;1628164;86;21250;-92
2022/06/22 12:38:18;;;;;;;6.25;0.60;;;;;;;21.07;49.18;99312.76;1659779;85;21478;-93
2022/06/22 12:41:02;;;;;;;3.90;0.40;;;;;;;20.46;49.91;99328.34;1660286;86;20961;-92
2022/06/22 12:43:50;;;;;;;1.20;0.20;;;;;;;19.89;50.81;99325.89;1603937;88;21386;-90
2022/06/22 12:46:54;;;;;;;3.77;0.28;;;;;;;19.17;53.11;99320.62;1603049;88;20905;-92
2022/06/22 12:49:38;;;;;;;2.37;0.50;;;;;;;18.61;55.04;99314.72;1660650;85;21177;-93
2022/06/22 12:52:12;;;;;;;2.15;0.30;;;;;;;18.22;56.72;99316.92;1660553;86;21332;-91
2022/06/22 12:54:46;;;;;;;2.20;0.23;;;;;;;17.98;58.27;99320.50;1642907;86;20913;-91
2022/06/22 12:57:17;;;;;;;2.37;0.68;;;;;;;17.81;59.76;99327.67;1660123;86;21462;-90
2022/06/22 13:00:07;;;;;;;1.17;0.30;;;;;;;17.70;60.66;99326.21;1628040;87;21386;-91
2022/06/22 13:02:36;;;;;;;2.02;0.50;;;;;;;17.66;61.68;99331.52;1627993;87;21237;-90
2022/06/22 13:05:11;;;;;;;1.17;0.50;;;;;;;17.73;61.92;99331.67;1659874;85;20949;-91
2022/06/22 13:07:52;;;;;;;1.05;0.20;;;;;;;17.79;61.46;99325.69;1659901;86;20933;-89
2022/06/22 13:10:23;;;;;;;1.35;0.55;;;;;;;17.86;61.99;99336.48;1659962;86;20901;-90